sensor_id;sensor_type;location;lat;lon;timestamp;temperature;humidity
3794;DHT22;1912;51.358;12.282;2023-01-10T00:00:46;5.00;1.00
3794;DHT22;1912;51.358;12.282;2023-01-10T00:03:12;5.00;1.00
3794;DHT22;1912;51.358;12.282;2023-01-10T00:05:39;5.00;1.00
3794;DHT22;1912;51.358;12.282;2023-01-10T00:08:06;5.00;1.00
3794;DHT22;1912;51.358;12.282;2023-01-10T00:10:32;5.10;1.00
3794;DHT22;1912;51.358;12.282;2023-01-10T00:12:58;5.10;1.00
3794;DHT22;1912;51.358;12.282;2023-01-10T00:15:43;5.00;1.00
3794;DHT22;1912;51.358;12.282;2023-01-10T00:18:09;5.10;1.00
3794;DHT22;1912;51.358;12.282;2023-01-10T00:20:35;5.10;1.00
3794;DHT22;1912;51.358;12.282;2023-01-10T00:23:01;5.00;1.00
3794;DHT22;1912;51.358;12.282;2023-01-10T00:25:28;5.10;1.00
3794;DHT22;1912;51.358;12.282;2023-01-10T00:27:54;5.10;1.00
3794;DHT22;1912;51.358;12.282;2023-01-10T00:30:40;5.10;1.00
3794;DHT22;1912;51.358;12.282;2023-01-10T00:33:07;5.10;1.00
3794;DHT22;1912;51.358;12.282;2023-01-10T00:35:34;5.10;1.00
3794;DHT22;1912;51.358;12.282;2023-01-10T00:37:59;5.10;1.00
3794;DHT22;1912;51.358;12.282;2023-01-10T00:40:30;5.10;1.00
3794;DHT22;1912;51.358;12.282;2023-01-10T00:42:57;5.20;1.00
3794;DHT22;1912;51.358;12.282;2023-01-10T00:45:44;5.20;1.00
3794;DHT22;1912;51.358;12.282;2023-01-10T00:48:11;5.20;1.00
3794;DHT22;1912;51.358;12.282;2023-01-10T00:50:37;5.20;1.00
3794;DHT22;1912;51.358;12.282;2023-01-10T00:53:03;5.20;1.00
3794;DHT22;1912;51.358;12.282;2023-01-10T00:55:29;5.30;1.00
3794;DHT22;1912;51.358;12.282;2023-01-10T00:57:55;5.30;1.00
3794;DHT22;1912;51.358;12.282;2023-01-10T01:00:21;5.30;1.00
3794;DHT22;1912;51.358;12.282;2023-01-10T01:02:47;5.30;1.00
3794;DHT22;1912;51.358;12.282;2023-01-10T01:05:14;5.30;1.00
3794;DHT22;1912;51.358;12.282;2023-01-10T01:07:40;5.40;1.00
3794;DHT22;1912;51.358;12.282;2023-01-10T01:10:06;5.40;1.00
3794;DHT22;1912;51.358;12.282;2023-01-10T01:12:50;5.40;1.00
3794;DHT22;1912;51.358;12.282;2023-01-10T01:15:16;5.40;1.00
3794;DHT22;1912;51.358;12.282;2023-01-10T01:17:42;5.40;1.00
3794;DHT22;1912;51.358;12.282;2023-01-10T01:20:08;5.30;1.00
3794;DHT22;1912;51.358;12.282;2023-01-10T01:22:34;5.30;1.00
3794;DHT22;1912;51.358;12.282;2023-01-10T01:25:00;5.30;1.00
3794;DHT22;1912;51.358;12.282;2023-01-10T01:27:26;5.20;1.00
3794;DHT22;1912;51.358;12.282;2023-01-10T01:29:52;5.20;1.00
3794;DHT22;1912;51.358;12.282;2023-01-10T01:32:18;5.20;1.00
3794;DHT22;1912;51.358;12.282;2023-01-10T01:34:46;5.20;1.00
3794;DHT22;1912;51.358;12.282;2023-01-10T01:37:11;5.20;1.00
3794;DHT22;1912;51.358;12.282;2023-01-10T01:39:37;5.20;1.00
3794;DHT22;1912;51.358;12.282;2023-01-10T01:42:04;5.20;1.00
3794;DHT22;1912;51.358;12.282;2023-01-10T01:44:32;5.20;1.00
3794;DHT22;1912;51.358;12.282;2023-01-10T01:49:31;5.20;1.00
3794;DHT22;1912;51.358;12.282;2023-01-10T01:52:04;5.20;1.00
3794;DHT22;1912;51.358;12.282;2023-01-10T01:54:33;5.20;1.00
3794;DHT22;1912;51.358;12.282;2023-01-10T01:57:07;5.20;1.00
3794;DHT22;1912;51.358;12.282;2023-01-10T01:59:40;5.20;1.00
3794;DHT22;1912;51.358;12.282;2023-01-10T02:02:14;5.20;1.00
3794;DHT22;1912;51.358;12.282;2023-01-10T02:04:50;5.10;1.00
3794;DHT22;1912;51.358;12.282;2023-01-10T02:07:20;5.20;1.00
3794;DHT22;1912;51.358;12.282;2023-01-10T02:13:04;5.20;1.00
3794;DHT22;1912;51.358;12.282;2023-01-10T02:15:31;5.20;1.00
3794;DHT22;1912;51.358;12.282;2023-01-10T02:17:58;5.20;1.00
3794;DHT22;1912;51.358;12.282;2023-01-10T02:20:26;5.20;1.00
3794;DHT22;1912;51.358;12.282;2023-01-10T02:23:20;5.20;1.00
3794;DHT22;1912;51.358;12.282;2023-01-10T02:32:15;5.20;1.00
3794;DHT22;1912;51.358;12.282;2023-01-10T02:35:23;5.20;1.00
3794;DHT22;1912;51.358;12.282;2023-01-10T02:38:09;5.20;1.00
3794;DHT22;1912;51.358;12.282;2023-01-10T02:40:51;5.10;1.00
3794;DHT22;1912;51.358;12.282;2023-01-10T02:43:38;5.10;1.00
3794;DHT22;1912;51.358;12.282;2023-01-10T02:46:17;5.10;1.00
3794;DHT22;1912;51.358;12.282;2023-01-10T02:48:50;5.00;1.00
3794;DHT22;1912;51.358;12.282;2023-01-10T02:51:28;5.00;1.00
3794;DHT22;1912;51.358;12.282;2023-01-10T02:54:10;5.00;1.00
3794;DHT22;1912;51.358;12.282;2023-01-10T03:00:03;5.00;1.00
3794;DHT22;1912;51.358;12.282;2023-01-10T03:05:36;5.10;1.00
3794;DHT22;1912;51.358;12.282;2023-01-10T03:11:08;5.10;1.00
3794;DHT22;1912;51.358;12.282;2023-01-10T03:13:54;5.00;1.00
3794;DHT22;1912;51.358;12.282;2023-01-10T03:16:28;5.00;1.00
3794;DHT22;1912;51.358;12.282;2023-01-10T03:19:00;5.00;1.00
3794;DHT22;1912;51.358;12.282;2023-01-10T03:21:29;4.90;1.00
3794;DHT22;1912;51.358;12.282;2023-01-10T03:24:00;4.90;1.00
3794;DHT22;1912;51.358;12.282;2023-01-10T03:26:48;4.80;1.00
3794;DHT22;1912;51.358;12.282;2023-01-10T03:29:47;4.70;1.00
3794;DHT22;1912;51.358;12.282;2023-01-10T03:32:20;4.70;1.00
3794;DHT22;1912;51.358;12.282;2023-01-10T03:34:48;4.60;1.00
3794;DHT22;1912;51.358;12.282;2023-01-10T03:40:08;4.40;1.00
3794;DHT22;1912;51.358;12.282;2023-01-10T03:43:00;4.40;1.00
3794;DHT22;1912;51.358;12.282;2023-01-10T03:46:03;4.30;1.00
3794;DHT22;1912;51.358;12.282;2023-01-10T03:48:35;4.30;1.00
3794;DHT22;1912;51.358;12.282;2023-01-10T03:51:03;4.30;1.00
3794;DHT22;1912;51.358;12.282;2023-01-10T03:53:31;4.30;1.00
3794;DHT22;1912;51.358;12.282;2023-01-10T03:55:57;4.40;1.00
3794;DHT22;1912;51.358;12.282;2023-01-10T04:46:44;5.10;1.00
3794;DHT22;1912;51.358;12.282;2023-01-10T04:49:10;5.20;1.00
3794;DHT22;1912;51.358;12.282;2023-01-10T04:51:36;5.10;1.00
3794;DHT22;1912;51.358;12.282;2023-01-10T04:54:02;5.10;1.00
3794;DHT22;1912;51.358;12.282;2023-01-10T04:56:28;5.20;1.00
3794;DHT22;1912;51.358;12.282;2023-01-10T04:58:53;5.20;1.00
3794;DHT22;1912;51.358;12.282;2023-01-10T05:01:24;5.10;1.00
3794;DHT22;1912;51.358;12.282;2023-01-10T05:03:52;5.10;1.00
3794;DHT22;1912;51.358;12.282;2023-01-10T05:06:20;5.10;1.00
3794;DHT22;1912;51.358;12.282;2023-01-10T05:08:46;5.20;1.00
3794;DHT22;1912;51.358;12.282;2023-01-10T05:11:12;5.10;1.00
3794;DHT22;1912;51.358;12.282;2023-01-10T05:13:38;5.20;1.00
3794;DHT22;1912;51.358;12.282;2023-01-10T05:16:04;5.20;1.00
3794;DHT22;1912;51.358;12.282;2023-01-10T05:18:31;5.20;1.00
3794;DHT22;1912;51.358;12.282;2023-01-10T05:21:05;5.20;1.00
3794;DHT22;1912;51.358;12.282;2023-01-10T05:23:32;5.30;1.00
3794;DHT22;1912;51.358;12.282;2023-01-10T05:26:05;5.20;1.00
3794;DHT22;1912;51.358;12.282;2023-01-10T05:28:31;5.30;1.00
3794;DHT22;1912;51.358;12.282;2023-01-10T05:30:57;5.30;1.00
3794;DHT22;1912;51.358;12.282;2023-01-10T05:33:23;5.30;1.00
3794;DHT22;1912;51.358;12.282;2023-01-10T05:35:48;5.30;1.00
3794;DHT22;1912;51.358;12.282;2023-01-10T05:38:14;5.30;1.00
3794;DHT22;1912;51.358;12.282;2023-01-10T05:40:40;5.30;1.00
3794;DHT22;1912;51.358;12.282;2023-01-10T05:43:05;5.30;1.00
3794;DHT22;1912;51.358;12.282;2023-01-10T05:45:31;5.30;1.00
3794;DHT22;1912;51.358;12.282;2023-01-10T05:47:57;5.30;1.00
3794;DHT22;1912;51.358;12.282;2023-01-10T05:50:22;5.30;1.00
3794;DHT22;1912;51.358;12.282;2023-01-10T05:52:48;5.40;1.00
3794;DHT22;1912;51.358;12.282;2023-01-10T05:55:14;5.30;1.00
3794;DHT22;1912;51.358;12.282;2023-01-10T05:57:39;5.30;1.00
3794;DHT22;1912;51.358;12.282;2023-01-10T06:00:05;5.30;1.00
3794;DHT22;1912;51.358;12.282;2023-01-10T06:02:32;5.30;1.00
3794;DHT22;1912;51.358;12.282;2023-01-10T06:04:57;5.30;1.00
3794;DHT22;1912;51.358;12.282;2023-01-10T06:07:23;5.40;1.00
3794;DHT22;1912;51.358;12.282;2023-01-10T06:09:49;5.40;1.00
3794;DHT22;1912;51.358;12.282;2023-01-10T06:12:16;5.40;1.00
3794;DHT22;1912;51.358;12.282;2023-01-10T06:14:43;5.40;1.00
3794;DHT22;1912;51.358;12.282;2023-01-10T06:17:09;5.50;1.00
3794;DHT22;1912;51.358;12.282;2023-01-10T06:19:36;5.50;1.00
3794;DHT22;1912;51.358;12.282;2023-01-10T06:22:02;5.50;1.00
3794;DHT22;1912;51.358;12.282;2023-01-10T06:24:28;5.50;1.00
3794;DHT22;1912;51.358;12.282;2023-01-10T06:26:54;5.40;1.00
3794;DHT22;1912;51.358;12.282;2023-01-10T06:29:19;5.40;1.00
3794;DHT22;1912;51.358;12.282;2023-01-10T06:31:45;5.30;1.00
3794;DHT22;1912;51.358;12.282;2023-01-10T06:34:11;5.30;1.00
3794;DHT22;1912;51.358;12.282;2023-01-10T06:36:36;5.30;1.00
3794;DHT22;1912;51.358;12.282;2023-01-10T06:39:02;5.30;1.00
3794;DHT22;1912;51.358;12.282;2023-01-10T06:41:28;5.30;1.00
3794;DHT22;1912;51.358;12.282;2023-01-10T06:43:54;5.30;1.00
3794;DHT22;1912;51.358;12.282;2023-01-10T06:46:19;5.30;1.00
3794;DHT22;1912;51.358;12.282;2023-01-10T06:48:45;5.30;1.00
3794;DHT22;1912;51.358;12.282;2023-01-10T06:51:13;5.30;1.00
3794;DHT22;1912;51.358;12.282;2023-01-10T06:53:40;5.40;1.00
3794;DHT22;1912;51.358;12.282;2023-01-10T06:56:06;5.40;1.00
3794;DHT22;1912;51.358;12.282;2023-01-10T06:58:34;5.40;1.00
3794;DHT22;1912;51.358;12.282;2023-01-10T07:01:06;5.40;1.00
3794;DHT22;1912;51.358;12.282;2023-01-10T07:03:37;5.40;1.00
3794;DHT22;1912;51.358;12.282;2023-01-10T07:06:04;5.40;1.00
3794;DHT22;1912;51.358;12.282;2023-01-10T07:08:41;5.40;1.00
3794;DHT22;1912;51.358;12.282;2023-01-10T07:11:08;5.40;1.00
3794;DHT22;1912;51.358;12.282;2023-01-10T07:13:35;5.40;1.00
3794;DHT22;1912;51.358;12.282;2023-01-10T07:16:05;5.50;1.00
3794;DHT22;1912;51.358;12.282;2023-01-10T07:18:34;5.50;1.00
3794;DHT22;1912;51.358;12.282;2023-01-10T07:20:59;5.50;1.00
3794;DHT22;1912;51.358;12.282;2023-01-10T07:23:25;5.50;1.00
3794;DHT22;1912;51.358;12.282;2023-01-10T07:25:51;5.50;1.00
3794;DHT22;1912;51.358;12.282;2023-01-10T07:28:16;5.50;1.00
3794;DHT22;1912;51.358;12.282;2023-01-10T07:30:42;5.50;1.00
3794;DHT22;1912;51.358;12.282;2023-01-10T07:33:08;5.50;1.00
3794;DHT22;1912;51.358;12.282;2023-01-10T07:35:34;5.60;1.00
3794;DHT22;1912;51.358;12.282;2023-01-10T07:37:59;5.50;1.00
3794;DHT22;1912;51.358;12.282;2023-01-10T07:40:27;5.50;1.00
3794;DHT22;1912;51.358;12.282;2023-01-10T07:42:57;5.50;1.00
3794;DHT22;1912;51.358;12.282;2023-01-10T07:45:23;5.50;1.00
3794;DHT22;1912;51.358;12.282;2023-01-10T07:47:57;5.50;1.00
3794;DHT22;1912;51.358;12.282;2023-01-10T07:50:25;5.50;1.00
3794;DHT22;1912;51.358;12.282;2023-01-10T07:52:51;5.60;1.00
3794;DHT22;1912;51.358;12.282;2023-01-10T07:55:17;5.60;1.00
3794;DHT22;1912;51.358;12.282;2023-01-10T07:57:43;5.60;1.00
3794;DHT22;1912;51.358;12.282;2023-01-10T08:00:09;5.60;1.00
3794;DHT22;1912;51.358;12.282;2023-01-10T08:02:35;5.60;1.00
3794;DHT22;1912;51.358;12.282;2023-01-10T08:05:01;5.60;1.00
3794;DHT22;1912;51.358;12.282;2023-01-10T08:07:31;5.60;1.00
3794;DHT22;1912;51.358;12.282;2023-01-10T08:09:56;5.60;1.00
3794;DHT22;1912;51.358;12.282;2023-01-10T08:12:22;5.60;1.00
3794;DHT22;1912;51.358;12.282;2023-01-10T08:14:50;5.70;1.00
3794;DHT22;1912;51.358;12.282;2023-01-10T08:17:16;5.70;1.00
3794;DHT22;1912;51.358;12.282;2023-01-10T08:19:42;5.80;1.00
3794;DHT22;1912;51.358;12.282;2023-01-10T08:22:07;5.80;1.00
3794;DHT22;1912;51.358;12.282;2023-01-10T08:24:34;5.80;1.00
3794;DHT22;1912;51.358;12.282;2023-01-10T08:27:00;5.80;1.00
3794;DHT22;1912;51.358;12.282;2023-01-10T08:29:26;5.80;1.00
3794;DHT22;1912;51.358;12.282;2023-01-10T08:31:52;5.80;1.00
3794;DHT22;1912;51.358;12.282;2023-01-10T08:34:18;5.80;1.00
3794;DHT22;1912;51.358;12.282;2023-01-10T08:36:44;5.80;1.00
3794;DHT22;1912;51.358;12.282;2023-01-10T08:39:11;5.80;1.00
3794;DHT22;1912;51.358;12.282;2023-01-10T08:41:36;5.80;1.00
3794;DHT22;1912;51.358;12.282;2023-01-10T08:44:04;5.80;1.00
3794;DHT22;1912;51.358;12.282;2023-01-10T08:46:30;5.90;1.00
3794;DHT22;1912;51.358;12.282;2023-01-10T08:48:56;5.80;1.00
3794;DHT22;1912;51.358;12.282;2023-01-10T08:51:21;5.90;1.00
3794;DHT22;1912;51.358;12.282;2023-01-10T08:53:47;5.90;1.00
3794;DHT22;1912;51.358;12.282;2023-01-10T08:56:13;5.90;1.00
3794;DHT22;1912;51.358;12.282;2023-01-10T08:58:39;5.90;1.00
3794;DHT22;1912;51.358;12.282;2023-01-10T09:01:07;5.90;1.00
3794;DHT22;1912;51.358;12.282;2023-01-10T09:03:33;5.90;1.00
3794;DHT22;1912;51.358;12.282;2023-01-10T09:06:00;6.00;1.00
3794;DHT22;1912;51.358;12.282;2023-01-10T09:08:26;6.00;1.00
3794;DHT22;1912;51.358;12.282;2023-01-10T09:10:53;6.00;1.00
3794;DHT22;1912;51.358;12.282;2023-01-10T09:13:19;6.00;1.00
3794;DHT22;1912;51.358;12.282;2023-01-10T09:15:45;6.00;1.00
3794;DHT22;1912;51.358;12.282;2023-01-10T09:18:12;6.10;1.00
3794;DHT22;1912;51.358;12.282;2023-01-10T09:20:40;6.10;1.00
3794;DHT22;1912;51.358;12.282;2023-01-10T09:23:12;6.10;1.00
3794;DHT22;1912;51.358;12.282;2023-01-10T09:25:42;6.10;1.00
3794;DHT22;1912;51.358;12.282;2023-01-10T09:28:08;6.20;1.00
3794;DHT22;1912;51.358;12.282;2023-01-10T09:30:34;6.20;1.00
3794;DHT22;1912;51.358;12.282;2023-01-10T09:33:01;6.20;1.00
3794;DHT22;1912;51.358;12.282;2023-01-10T09:35:28;6.20;1.00
3794;DHT22;1912;51.358;12.282;2023-01-10T09:37:59;6.30;1.00
3794;DHT22;1912;51.358;12.282;2023-01-10T09:40:49;6.30;1.00
3794;DHT22;1912;51.358;12.282;2023-01-10T09:43:36;6.30;1.00
3794;DHT22;1912;51.358;12.282;2023-01-10T09:49:18;6.40;1.00
3794;DHT22;1912;51.358;12.282;2023-01-10T09:51:51;6.50;1.00
3794;DHT22;1912;51.358;12.282;2023-01-10T09:54:33;6.50;1.00
3794;DHT22;1912;51.358;12.282;2023-01-10T09:57:01;6.50;1.00
3794;DHT22;1912;51.358;12.282;2023-01-10T09:59:37;6.50;1.00
3794;DHT22;1912;51.358;12.282;2023-01-10T10:02:30;6.50;1.00
3794;DHT22;1912;51.358;12.282;2023-01-10T10:05:26;6.40;1.00
3794;DHT22;1912;51.358;12.282;2023-01-10T10:08:01;6.40;1.00
3794;DHT22;1912;51.358;12.282;2023-01-10T10:10:47;6.40;1.00
3794;DHT22;1912;51.358;12.282;2023-01-10T10:13:19;6.40;1.00
3794;DHT22;1912;51.358;12.282;2023-01-10T10:18:51;6.40;1.00
3794;DHT22;1912;51.358;12.282;2023-01-10T10:21:45;6.40;1.00
3794;DHT22;1912;51.358;12.282;2023-01-10T10:25:01;6.50;1.00
3794;DHT22;1912;51.358;12.282;2023-01-10T10:27:59;6.50;1.00
3794;DHT22;1912;51.358;12.282;2023-01-10T10:33:51;6.50;1.00
3794;DHT22;1912;51.358;12.282;2023-01-10T10:36:35;6.50;1.00
3794;DHT22;1912;51.358;12.282;2023-01-10T10:39:05;6.60;1.00
3794;DHT22;1912;51.358;12.282;2023-01-10T10:41:41;6.60;1.00
3794;DHT22;1912;51.358;12.282;2023-01-10T10:47:01;6.70;1.00
3794;DHT22;1912;51.358;12.282;2023-01-10T10:49:36;6.70;1.00
3794;DHT22;1912;51.358;12.282;2023-01-10T10:52:25;6.70;1.00
3794;DHT22;1912;51.358;12.282;2023-01-10T10:54:52;6.70;1.00
3794;DHT22;1912;51.358;12.282;2023-01-10T10:57:26;6.80;1.00
3794;DHT22;1912;51.358;12.282;2023-01-10T10:59:53;6.80;1.00
3794;DHT22;1912;51.358;12.282;2023-01-10T11:02:29;6.80;1.00
3794;DHT22;1912;51.358;12.282;2023-01-10T11:04:59;6.80;1.00
3794;DHT22;1912;51.358;12.282;2023-01-10T11:07:31;6.90;1.00
3794;DHT22;1912;51.358;12.282;2023-01-10T11:09:59;7.00;1.00
3794;DHT22;1912;51.358;12.282;2023-01-10T11:12:48;7.00;1.00
3794;DHT22;1912;51.358;12.282;2023-01-10T11:15:35;7.10;1.00
3794;DHT22;1912;51.358;12.282;2023-01-10T11:18:08;7.20;1.00
3794;DHT22;1912;51.358;12.282;2023-01-10T11:23:55;7.40;1.00
3794;DHT22;1912;51.358;12.282;2023-01-10T11:29:34;7.60;1.00
3794;DHT22;1912;51.358;12.282;2023-01-10T11:32:08;7.50;1.00
3794;DHT22;1912;51.358;12.282;2023-01-10T11:34:41;7.50;1.00
3794;DHT22;1912;51.358;12.282;2023-01-10T11:37:17;7.40;1.00
3794;DHT22;1912;51.358;12.282;2023-01-10T11:40:18;7.30;1.00
3794;DHT22;1912;51.358;12.282;2023-01-10T11:42:46;7.30;1.00
3794;DHT22;1912;51.358;12.282;2023-01-10T11:50:32;7.20;1.00
3794;DHT22;1912;51.358;12.282;2023-01-10T11:52:59;7.20;1.00
3794;DHT22;1912;51.358;12.282;2023-01-10T11:55:28;7.20;1.00
3794;DHT22;1912;51.358;12.282;2023-01-10T11:58:11;7.20;1.00
3794;DHT22;1912;51.358;12.282;2023-01-10T12:00:44;7.20;1.00
3794;DHT22;1912;51.358;12.282;2023-01-10T12:03:33;7.20;1.00
3794;DHT22;1912;51.358;12.282;2023-01-10T12:06:22;7.20;1.00
3794;DHT22;1912;51.358;12.282;2023-01-10T12:08:48;7.10;1.00
3794;DHT22;1912;51.358;12.282;2023-01-10T12:11:24;7.10;1.00
3794;DHT22;1912;51.358;12.282;2023-01-10T12:13:54;7.10;1.00
3794;DHT22;1912;51.358;12.282;2023-01-10T12:16:30;7.10;1.00
3794;DHT22;1912;51.358;12.282;2023-01-10T12:19:03;7.10;1.00
3794;DHT22;1912;51.358;12.282;2023-01-10T12:24:21;7.10;1.00
3794;DHT22;1912;51.358;12.282;2023-01-10T12:26:53;7.10;1.00
3794;DHT22;1912;51.358;12.282;2023-01-10T12:29:34;7.10;1.00
3794;DHT22;1912;51.358;12.282;2023-01-10T12:32:04;7.10;1.00
3794;DHT22;1912;51.358;12.282;2023-01-10T12:34:43;7.10;1.00
3794;DHT22;1912;51.358;12.282;2023-01-10T12:37:25;7.10;1.00
3794;DHT22;1912;51.358;12.282;2023-01-10T12:40:36;7.10;1.00
3794;DHT22;1912;51.358;12.282;2023-01-10T12:43:14;7.10;1.00
3794;DHT22;1912;51.358;12.282;2023-01-10T12:46:21;7.10;1.00
3794;DHT22;1912;51.358;12.282;2023-01-10T12:49:00;7.10;1.00
3794;DHT22;1912;51.358;12.282;2023-01-10T12:51:28;7.10;1.00
3794;DHT22;1912;51.358;12.282;2023-01-10T12:54:01;7.10;1.00
3794;DHT22;1912;51.358;12.282;2023-01-10T12:56:31;7.10;1.00
3794;DHT22;1912;51.358;12.282;2023-01-10T12:59:00;7.10;1.00
3794;DHT22;1912;51.358;12.282;2023-01-10T13:01:31;7.10;1.00
3794;DHT22;1912;51.358;12.282;2023-01-10T13:04:09;7.20;1.00
3794;DHT22;1912;51.358;12.282;2023-01-10T13:06:40;7.20;1.00
3794;DHT22;1912;51.358;12.282;2023-01-10T13:09:13;7.20;1.00
3794;DHT22;1912;51.358;12.282;2023-01-10T13:11:49;7.20;1.00
3794;DHT22;1912;51.358;12.282;2023-01-10T13:14:26;7.30;1.00
3794;DHT22;1912;51.358;12.282;2023-01-10T13:17:15;7.30;1.00
3794;DHT22;1912;51.358;12.282;2023-01-10T13:22:47;7.20;1.00
3794;DHT22;1912;51.358;12.282;2023-01-10T13:25:52;7.20;1.00
3794;DHT22;1912;51.358;12.282;2023-01-10T13:28:22;7.20;1.00
3794;DHT22;1912;51.358;12.282;2023-01-10T13:30:52;7.10;1.00
3794;DHT22;1912;51.358;12.282;2023-01-10T13:33:25;7.20;1.00
3794;DHT22;1912;51.358;12.282;2023-01-10T13:36:05;7.20;1.00
3794;DHT22;1912;51.358;12.282;2023-01-10T13:38:55;7.20;1.00
3794;DHT22;1912;51.358;12.282;2023-01-10T13:41:22;7.20;1.00
3794;DHT22;1912;51.358;12.282;2023-01-10T13:44:12;7.20;1.00
3794;DHT22;1912;51.358;12.282;2023-01-10T13:46:41;7.20;1.00
3794;DHT22;1912;51.358;12.282;2023-01-10T13:51:36;7.10;1.00
3794;DHT22;1912;51.358;12.282;2023-01-10T13:56:42;7.10;1.00
3794;DHT22;1912;51.358;12.282;2023-01-10T14:02:24;7.10;1.00
3794;DHT22;1912;51.358;12.282;2023-01-10T14:05:14;7.10;1.00
3794;DHT22;1912;51.358;12.282;2023-01-10T14:07:48;7.10;1.00
3794;DHT22;1912;51.358;12.282;2023-01-10T14:10:25;7.10;1.00
3794;DHT22;1912;51.358;12.282;2023-01-10T14:12:59;7.10;1.00
3794;DHT22;1912;51.358;12.282;2023-01-10T14:15:38;7.10;1.00
3794;DHT22;1912;51.358;12.282;2023-01-10T14:18:15;7.10;1.00
3794;DHT22;1912;51.358;12.282;2023-01-10T14:20:44;7.10;1.00
3794;DHT22;1912;51.358;12.282;2023-01-10T14:23:21;7.00;1.00
3794;DHT22;1912;51.358;12.282;2023-01-10T14:25:55;7.00;1.00
3794;DHT22;1912;51.358;12.282;2023-01-10T14:28:27;7.00;1.00
3794;DHT22;1912;51.358;12.282;2023-01-10T14:31:05;7.00;1.00
3794;DHT22;1912;51.358;12.282;2023-01-10T14:33:33;7.00;1.00
3794;DHT22;1912;51.358;12.282;2023-01-10T14:36:15;7.00;1.00
3794;DHT22;1912;51.358;12.282;2023-01-10T14:38:44;6.90;1.00
3794;DHT22;1912;51.358;12.282;2023-01-10T14:41:21;6.80;1.00
3794;DHT22;1912;51.358;12.282;2023-01-10T14:49:29;6.70;1.00
3794;DHT22;1912;51.358;12.282;2023-01-10T14:54:44;6.60;1.00
3794;DHT22;1912;51.358;12.282;2023-01-10T14:57:17;6.60;1.00
3794;DHT22;1912;51.358;12.282;2023-01-10T14:59:44;6.60;1.00
3794;DHT22;1912;51.358;12.282;2023-01-10T15:02:23;6.60;1.00
3794;DHT22;1912;51.358;12.282;2023-01-10T15:04:59;6.60;1.00
3794;DHT22;1912;51.358;12.282;2023-01-10T15:07:32;6.60;1.00
3794;DHT22;1912;51.358;12.282;2023-01-10T15:09:58;6.70;1.00
3794;DHT22;1912;51.358;12.282;2023-01-10T15:12:28;6.60;1.00
3794;DHT22;1912;51.358;12.282;2023-01-10T15:14:59;6.60;1.00
3794;DHT22;1912;51.358;12.282;2023-01-10T15:17:30;6.60;1.00
3794;DHT22;1912;51.358;12.282;2023-01-10T15:19:56;6.60;1.00
3794;DHT22;1912;51.358;12.282;2023-01-10T15:22:31;6.60;1.00
3794;DHT22;1912;51.358;12.282;2023-01-10T15:27:26;6.60;1.00
3794;DHT22;1912;51.358;12.282;2023-01-10T15:29:52;6.50;1.00
3794;DHT22;1912;51.358;12.282;2023-01-10T15:32:35;6.50;1.00
3794;DHT22;1912;51.358;12.282;2023-01-10T15:35:04;6.60;1.00
3794;DHT22;1912;51.358;12.282;2023-01-10T15:37:34;6.60;1.00
3794;DHT22;1912;51.358;12.282;2023-01-10T15:40:04;6.50;1.00
3794;DHT22;1912;51.358;12.282;2023-01-10T15:42:32;6.50;1.00
3794;DHT22;1912;51.358;12.282;2023-01-10T15:45:28;6.50;1.00
3794;DHT22;1912;51.358;12.282;2023-01-10T15:48:01;6.50;1.00
3794;DHT22;1912;51.358;12.282;2023-01-10T15:50:34;6.50;1.00
3794;DHT22;1912;51.358;12.282;2023-01-10T15:53:12;6.50;1.00
3794;DHT22;1912;51.358;12.282;2023-01-10T15:55:52;6.50;1.00
3794;DHT22;1912;51.358;12.282;2023-01-10T16:00:58;6.50;1.00
3794;DHT22;1912;51.358;12.282;2023-01-10T16:03:32;6.40;1.00
3794;DHT22;1912;51.358;12.282;2023-01-10T16:06:01;6.40;1.00
3794;DHT22;1912;51.358;12.282;2023-01-10T16:08:33;6.50;1.00
3794;DHT22;1912;51.358;12.282;2023-01-10T16:11:15;6.40;1.00
3794;DHT22;1912;51.358;12.282;2023-01-10T16:14:03;6.40;1.00
3794;DHT22;1912;51.358;12.282;2023-01-10T16:16:29;6.30;1.00
3794;DHT22;1912;51.358;12.282;2023-01-10T16:18:54;6.30;1.00
3794;DHT22;1912;51.358;12.282;2023-01-10T16:21:24;6.20;1.00
3794;DHT22;1912;51.358;12.282;2023-01-10T16:23:53;6.20;1.00
3794;DHT22;1912;51.358;12.282;2023-01-10T16:26:19;6.20;1.00
3794;DHT22;1912;51.358;12.282;2023-01-10T16:28:44;6.20;1.00
3794;DHT22;1912;51.358;12.282;2023-01-10T16:31:11;6.10;1.00
3794;DHT22;1912;51.358;12.282;2023-01-10T16:33:38;6.20;1.00
3794;DHT22;1912;51.358;12.282;2023-01-10T16:36:13;6.20;1.00
3794;DHT22;1912;51.358;12.282;2023-01-10T16:38:41;6.10;1.00
3794;DHT22;1912;51.358;12.282;2023-01-10T16:41:10;6.20;1.00
3794;DHT22;1912;51.358;12.282;2023-01-10T16:43:55;6.20;1.00
3794;DHT22;1912;51.358;12.282;2023-01-10T16:46:21;6.30;1.00
3794;DHT22;1912;51.358;12.282;2023-01-10T16:48:47;6.20;1.00
3794;DHT22;1912;51.358;12.282;2023-01-10T16:51:21;6.30;1.00
3794;DHT22;1912;51.358;12.282;2023-01-10T16:53:53;6.30;1.00
3794;DHT22;1912;51.358;12.282;2023-01-10T16:56:22;6.40;1.00
3794;DHT22;1912;51.358;12.282;2023-01-10T16:58:50;6.30;1.00
3794;DHT22;1912;51.358;12.282;2023-01-10T17:01:18;6.30;1.00
3794;DHT22;1912;51.358;12.282;2023-01-10T17:03:46;6.20;1.00
3794;DHT22;1912;51.358;12.282;2023-01-10T17:06:12;6.20;1.00
3794;DHT22;1912;51.358;12.282;2023-01-10T17:08:39;6.20;1.00
3794;DHT22;1912;51.358;12.282;2023-01-10T17:11:09;6.20;1.00
3794;DHT22;1912;51.358;12.282;2023-01-10T17:13:42;6.20;1.00
3794;DHT22;1912;51.358;12.282;2023-01-10T17:16:09;6.30;1.00
3794;DHT22;1912;51.358;12.282;2023-01-10T17:18:34;6.20;1.00
3794;DHT22;1912;51.358;12.282;2023-01-10T17:21:00;6.10;1.00
3794;DHT22;1912;51.358;12.282;2023-01-10T17:23:26;6.10;1.00
3794;DHT22;1912;51.358;12.282;2023-01-10T17:25:59;6.10;1.00
3794;DHT22;1912;51.358;12.282;2023-01-10T17:28:25;6.10;1.00
3794;DHT22;1912;51.358;12.282;2023-01-10T17:30:53;6.00;1.00
3794;DHT22;1912;51.358;12.282;2023-01-10T17:33:18;6.00;1.00
3794;DHT22;1912;51.358;12.282;2023-01-10T17:35:44;6.00;1.00
3794;DHT22;1912;51.358;12.282;2023-01-10T17:38:12;6.00;1.00
3794;DHT22;1912;51.358;12.282;2023-01-10T17:40:44;6.00;1.00
3794;DHT22;1912;51.358;12.282;2023-01-10T17:43:11;5.90;1.00
3794;DHT22;1912;51.358;12.282;2023-01-10T17:45:38;5.90;1.00
3794;DHT22;1912;51.358;12.282;2023-01-10T17:48:05;5.80;1.00
3794;DHT22;1912;51.358;12.282;2023-01-10T17:50:31;5.70;1.00
3794;DHT22;1912;51.358;12.282;2023-01-10T17:52:57;5.70;1.00
3794;DHT22;1912;51.358;12.282;2023-01-10T17:55:22;5.70;1.00
3794;DHT22;1912;51.358;12.282;2023-01-10T17:57:48;5.60;1.00
3794;DHT22;1912;51.358;12.282;2023-01-10T18:00:14;5.50;1.00
3794;DHT22;1912;51.358;12.282;2023-01-10T18:02:41;5.50;1.00
3794;DHT22;1912;51.358;12.282;2023-01-10T18:05:07;5.40;1.00
3794;DHT22;1912;51.358;12.282;2023-01-10T18:07:32;5.40;1.00
3794;DHT22;1912;51.358;12.282;2023-01-10T18:09:58;5.40;1.00
3794;DHT22;1912;51.358;12.282;2023-01-10T18:12:24;5.40;1.00
3794;DHT22;1912;51.358;12.282;2023-01-10T18:14:49;5.40;1.00
3794;DHT22;1912;51.358;12.282;2023-01-10T18:17:16;5.40;1.00
3794;DHT22;1912;51.358;12.282;2023-01-10T18:19:44;5.40;1.00
3794;DHT22;1912;51.358;12.282;2023-01-10T18:22:11;5.30;1.00
3794;DHT22;1912;51.358;12.282;2023-01-10T18:24:56;5.30;1.00
3794;DHT22;1912;51.358;12.282;2023-01-10T18:27:23;5.30;1.00
3794;DHT22;1912;51.358;12.282;2023-01-10T18:29:51;5.30;1.00
3794;DHT22;1912;51.358;12.282;2023-01-10T18:32:18;5.20;1.00
3794;DHT22;1912;51.358;12.282;2023-01-10T18:34:45;5.20;1.00
3794;DHT22;1912;51.358;12.282;2023-01-10T18:37:14;5.20;1.00
3794;DHT22;1912;51.358;12.282;2023-01-10T18:39:40;5.10;1.00
3794;DHT22;1912;51.358;12.282;2023-01-10T18:42:10;5.10;1.00
3794;DHT22;1912;51.358;12.282;2023-01-10T18:44:37;5.10;1.00
3794;DHT22;1912;51.358;12.282;2023-01-10T18:47:04;5.00;1.00